Terminal Aerodrome Forecast
Issued by NWS Blacksburg, VA

Current Version | Previous Version | Text Only | Print | Product List | Glossary Off
Versions: 1 2 3 4 5 6 7 8 9 10 11 12 13

000
FTUS41 KRNK 240523
TAFBLF
TAF
KBLF 240523Z 2406/2506 26003KT P6SM SCT250
     FM241900 23006KT P6SM SCT045
     FM250000 25003KT P6SM SCT120=

USA.gov is the U.S. government's official web portal to all federal, state and local government web resources and services.